sensor_id;sensor_type;location;lat;lon;timestamp;P1;durP1;ratioP1;P2;durP2;ratioP2
5391;SDS011;2719;53.624;9.786;2022-12-07T00:01:04;8.93;;;4.40;;
5391;SDS011;2719;53.624;9.786;2022-12-07T00:03:31;11.50;;;4.97;;
5391;SDS011;2719;53.624;9.786;2022-12-07T00:05:58;8.80;;;5.13;;
5391;SDS011;2719;53.624;9.786;2022-12-07T00:08:25;8.20;;;4.30;;
5391;SDS011;2719;53.624;9.786;2022-12-07T00:10:53;12.40;;;5.40;;
5391;SDS011;2719;53.624;9.786;2022-12-07T00:13:20;7.20;;;3.80;;
5391;SDS011;2719;53.624;9.786;2022-12-07T00:15:46;16.83;;;6.80;;
5391;SDS011;2719;53.624;9.786;2022-12-07T00:18:13;12.17;;;5.00;;
5391;SDS011;2719;53.624;9.786;2022-12-07T00:20:40;7.47;;;4.60;;
5391;SDS011;2719;53.624;9.786;2022-12-07T00:23:06;9.13;;;3.73;;
5391;SDS011;2719;53.624;9.786;2022-12-07T00:25:33;9.73;;;4.30;;
5391;SDS011;2719;53.624;9.786;2022-12-07T00:28:01;6.30;;;3.63;;
5391;SDS011;2719;53.624;9.786;2022-12-07T00:30:28;6.73;;;4.37;;
5391;SDS011;2719;53.624;9.786;2022-12-07T00:32:54;7.40;;;4.10;;
5391;SDS011;2719;53.624;9.786;2022-12-07T00:35:21;6.23;;;3.80;;
5391;SDS011;2719;53.624;9.786;2022-12-07T00:37:48;7.37;;;4.40;;
5391;SDS011;2719;53.624;9.786;2022-12-07T00:40:14;6.03;;;3.27;;
5391;SDS011;2719;53.624;9.786;2022-12-07T00:42:41;8.20;;;3.83;;
5391;SDS011;2719;53.624;9.786;2022-12-07T00:45:09;7.93;;;3.90;;
5391;SDS011;2719;53.624;9.786;2022-12-07T00:47:36;7.50;;;3.60;;
5391;SDS011;2719;53.624;9.786;2022-12-07T00:50:03;5.50;;;2.80;;
5391;SDS011;2719;53.624;9.786;2022-12-07T00:52:30;5.40;;;2.60;;
5391;SDS011;2719;53.624;9.786;2022-12-07T00:54:57;8.20;;;3.40;;
5391;SDS011;2719;53.624;9.786;2022-12-07T00:57:24;7.23;;;3.43;;
5391;SDS011;2719;53.624;9.786;2022-12-07T00:59:51;7.13;;;3.70;;
5391;SDS011;2719;53.624;9.786;2022-12-07T01:02:21;8.00;;;4.77;;
5391;SDS011;2719;53.624;9.786;2022-12-07T01:04:48;8.83;;;3.10;;
5391;SDS011;2719;53.624;9.786;2022-12-07T01:07:14;4.77;;;2.83;;
5391;SDS011;2719;53.624;9.786;2022-12-07T01:09:41;5.00;;;2.30;;
5391;SDS011;2719;53.624;9.786;2022-12-07T01:12:08;8.83;;;2.97;;
5391;SDS011;2719;53.624;9.786;2022-12-07T01:14:35;5.97;;;3.50;;
5391;SDS011;2719;53.624;9.786;2022-12-07T01:17:01;4.87;;;2.73;;
5391;SDS011;2719;53.624;9.786;2022-12-07T01:19:29;4.63;;;2.70;;
5391;SDS011;2719;53.624;9.786;2022-12-07T01:21:56;7.73;;;3.30;;
5391;SDS011;2719;53.624;9.786;2022-12-07T01:24:23;15.03;;;3.13;;
5391;SDS011;2719;53.624;9.786;2022-12-07T01:26:49;7.13;;;3.40;;
5391;SDS011;2719;53.624;9.786;2022-12-07T01:29:16;6.60;;;3.20;;
5391;SDS011;2719;53.624;9.786;2022-12-07T01:31:43;4.87;;;2.80;;
5391;SDS011;2719;53.624;9.786;2022-12-07T01:34:10;9.90;;;2.60;;
5391;SDS011;2719;53.624;9.786;2022-12-07T01:36:38;7.03;;;3.37;;
5391;SDS011;2719;53.624;9.786;2022-12-07T01:39:05;6.90;;;3.17;;
5391;SDS011;2719;53.624;9.786;2022-12-07T01:41:33;5.03;;;2.70;;
5391;SDS011;2719;53.624;9.786;2022-12-07T01:44:08;6.33;;;2.60;;
5391;SDS011;2719;53.624;9.786;2022-12-07T01:46:38;7.30;;;2.43;;
5391;SDS011;2719;53.624;9.786;2022-12-07T01:49:05;5.63;;;2.23;;
5391;SDS011;2719;53.624;9.786;2022-12-07T01:51:34;5.83;;;2.93;;
5391;SDS011;2719;53.624;9.786;2022-12-07T01:54:06;10.47;;;4.10;;
5391;SDS011;2719;53.624;9.786;2022-12-07T01:56:34;5.27;;;2.07;;
5391;SDS011;2719;53.624;9.786;2022-12-07T01:59:01;10.13;;;3.13;;
5391;SDS011;2719;53.624;9.786;2022-12-07T02:01:28;7.73;;;3.13;;
5391;SDS011;2719;53.624;9.786;2022-12-07T02:03:55;5.30;;;3.00;;
5391;SDS011;2719;53.624;9.786;2022-12-07T02:06:23;9.80;;;2.17;;
5391;SDS011;2719;53.624;9.786;2022-12-07T02:08:53;5.90;;;2.23;;
5391;SDS011;2719;53.624;9.786;2022-12-07T02:11:19;5.23;;;2.90;;
5391;SDS011;2719;53.624;9.786;2022-12-07T02:13:47;6.40;;;2.67;;
5391;SDS011;2719;53.624;9.786;2022-12-07T02:16:17;5.63;;;2.50;;
5391;SDS011;2719;53.624;9.786;2022-12-07T02:19:01;3.03;;;1.70;;
5391;SDS011;2719;53.624;9.786;2022-12-07T02:21:43;3.67;;;2.20;;
5391;SDS011;2719;53.624;9.786;2022-12-07T02:24:22;7.47;;;1.20;;
5391;SDS011;2719;53.624;9.786;2022-12-07T02:27:06;5.47;;;1.63;;
5391;SDS011;2719;53.624;9.786;2022-12-07T02:29:49;14.10;;;1.57;;
5391;SDS011;2719;53.624;9.786;2022-12-07T02:32:21;7.90;;;1.03;;
5391;SDS011;2719;53.624;9.786;2022-12-07T02:34:53;2.40;;;1.30;;
5391;SDS011;2719;53.624;9.786;2022-12-07T02:37:27;4.93;;;1.10;;
5391;SDS011;2719;53.624;9.786;2022-12-07T02:40:07;2.83;;;0.80;;
5391;SDS011;2719;53.624;9.786;2022-12-07T02:42:39;2.17;;;0.97;;
5391;SDS011;2719;53.624;9.786;2022-12-07T02:45:12;2.60;;;0.90;;
5391;SDS011;2719;53.624;9.786;2022-12-07T02:47:41;2.73;;;0.70;;
5391;SDS011;2719;53.624;9.786;2022-12-07T02:50:10;9.40;;;0.60;;
5391;SDS011;2719;53.624;9.786;2022-12-07T02:52:37;3.93;;;0.60;;
5391;SDS011;2719;53.624;9.786;2022-12-07T02:55:04;6.93;;;0.90;;
5391;SDS011;2719;53.624;9.786;2022-12-07T02:57:37;9.87;;;0.73;;
5391;SDS011;2719;53.624;9.786;2022-12-07T03:00:17;1.27;;;0.63;;
5391;SDS011;2719;53.624;9.786;2022-12-07T03:02:48;5.70;;;0.77;;
5391;SDS011;2719;53.624;9.786;2022-12-07T03:05:29;3.57;;;0.70;;
5391;SDS011;2719;53.624;9.786;2022-12-07T03:08:11;6.30;;;0.40;;
5391;SDS011;2719;53.624;9.786;2022-12-07T03:10:45;1.10;;;0.40;;
5391;SDS011;2719;53.624;9.786;2022-12-07T03:13:22;1.40;;;0.50;;
5391;SDS011;2719;53.624;9.786;2022-12-07T03:15:55;5.70;;;0.73;;
5391;SDS011;2719;53.624;9.786;2022-12-07T03:18:29;0.90;;;0.50;;
5391;SDS011;2719;53.624;9.786;2022-12-07T03:20:59;4.33;;;1.43;;
5391;SDS011;2719;53.624;9.786;2022-12-07T03:23:29;3.47;;;0.60;;
5391;SDS011;2719;53.624;9.786;2022-12-07T03:26:01;3.73;;;1.60;;
5391;SDS011;2719;53.624;9.786;2022-12-07T03:28:31;2.20;;;0.63;;
5391;SDS011;2719;53.624;9.786;2022-12-07T03:31:03;4.50;;;0.53;;
5391;SDS011;2719;53.624;9.786;2022-12-07T03:33:36;0.77;;;0.30;;
5391;SDS011;2719;53.624;9.786;2022-12-07T03:36:11;2.00;;;0.70;;
5391;SDS011;2719;53.624;9.786;2022-12-07T03:38:44;1.03;;;0.47;;
5391;SDS011;2719;53.624;9.786;2022-12-07T03:41:15;2.30;;;0.60;;
5391;SDS011;2719;53.624;9.786;2022-12-07T03:43:45;3.23;;;0.60;;
5391;SDS011;2719;53.624;9.786;2022-12-07T03:46:16;3.30;;;0.60;;
5391;SDS011;2719;53.624;9.786;2022-12-07T03:48:48;1.47;;;0.50;;
5391;SDS011;2719;53.624;9.786;2022-12-07T03:51:22;2.13;;;0.63;;
5391;SDS011;2719;53.624;9.786;2022-12-07T03:53:54;0.80;;;0.50;;
5391;SDS011;2719;53.624;9.786;2022-12-07T03:56:26;6.40;;;0.50;;
5391;SDS011;2719;53.624;9.786;2022-12-07T03:58:53;2.80;;;0.50;;
5391;SDS011;2719;53.624;9.786;2022-12-07T04:01:22;1.10;;;0.43;;
5391;SDS011;2719;53.624;9.786;2022-12-07T04:03:49;1.07;;;0.43;;
5391;SDS011;2719;53.624;9.786;2022-12-07T04:06:16;2.20;;;0.60;;
5391;SDS011;2719;53.624;9.786;2022-12-07T04:08:42;2.30;;;0.70;;
5391;SDS011;2719;53.624;9.786;2022-12-07T04:11:09;1.63;;;0.80;;
5391;SDS011;2719;53.624;9.786;2022-12-07T04:13:36;1.70;;;1.30;;
5391;SDS011;2719;53.624;9.786;2022-12-07T04:16:16;2.13;;;0.70;;
5391;SDS011;2719;53.624;9.786;2022-12-07T04:18:44;0.80;;;0.43;;
5391;SDS011;2719;53.624;9.786;2022-12-07T04:21:11;4.40;;;0.97;;
5391;SDS011;2719;53.624;9.786;2022-12-07T04:23:38;2.40;;;0.70;;
5391;SDS011;2719;53.624;9.786;2022-12-07T04:26:04;5.73;;;0.70;;
5391;SDS011;2719;53.624;9.786;2022-12-07T04:28:31;3.73;;;0.90;;
5391;SDS011;2719;53.624;9.786;2022-12-07T04:30:58;9.87;;;1.73;;
5391;SDS011;2719;53.624;9.786;2022-12-07T04:33:24;2.53;;;0.70;;
5391;SDS011;2719;53.624;9.786;2022-12-07T04:35:52;1.00;;;0.50;;
5391;SDS011;2719;53.624;9.786;2022-12-07T04:38:19;3.27;;;0.60;;
5391;SDS011;2719;53.624;9.786;2022-12-07T04:40:46;3.47;;;0.57;;
5391;SDS011;2719;53.624;9.786;2022-12-07T04:43:12;2.80;;;0.77;;
5391;SDS011;2719;53.624;9.786;2022-12-07T04:45:39;1.40;;;0.60;;
5391;SDS011;2719;53.624;9.786;2022-12-07T04:48:06;9.03;;;0.93;;
5391;SDS011;2719;53.624;9.786;2022-12-07T04:50:32;1.17;;;0.47;;
5391;SDS011;2719;53.624;9.786;2022-12-07T04:53:04;1.20;;;0.50;;
5391;SDS011;2719;53.624;9.786;2022-12-07T04:55:31;10.30;;;0.60;;
5391;SDS011;2719;53.624;9.786;2022-12-07T04:57:58;4.13;;;0.53;;
5391;SDS011;2719;53.624;9.786;2022-12-07T05:00:24;1.10;;;0.50;;
5391;SDS011;2719;53.624;9.786;2022-12-07T05:02:51;1.40;;;0.40;;
5391;SDS011;2719;53.624;9.786;2022-12-07T05:05:18;5.23;;;0.60;;
5391;SDS011;2719;53.624;9.786;2022-12-07T05:07:44;3.77;;;0.90;;
5391;SDS011;2719;53.624;9.786;2022-12-07T05:12:40;3.07;;;0.60;;
5391;SDS011;2719;53.624;9.786;2022-12-07T05:15:07;2.30;;;0.70;;
5391;SDS011;2719;53.624;9.786;2022-12-07T05:17:34;1.27;;;0.83;;
5391;SDS011;2719;53.624;9.786;2022-12-07T05:20:01;1.47;;;0.50;;
5391;SDS011;2719;53.624;9.786;2022-12-07T05:22:28;1.40;;;0.77;;
5391;SDS011;2719;53.624;9.786;2022-12-07T05:24:55;2.87;;;0.70;;
5391;SDS011;2719;53.624;9.786;2022-12-07T05:27:23;3.80;;;0.73;;
5391;SDS011;2719;53.624;9.786;2022-12-07T05:29:50;1.70;;;0.60;;
5391;SDS011;2719;53.624;9.786;2022-12-07T05:32:17;4.70;;;0.60;;
5391;SDS011;2719;53.624;9.786;2022-12-07T05:34:44;1.23;;;0.70;;
5391;SDS011;2719;53.624;9.786;2022-12-07T05:37:10;0.90;;;0.50;;
5391;SDS011;2719;53.624;9.786;2022-12-07T05:39:37;2.70;;;0.80;;
5391;SDS011;2719;53.624;9.786;2022-12-07T05:42:05;6.53;;;0.80;;
5391;SDS011;2719;53.624;9.786;2022-12-07T05:44:40;3.10;;;0.80;;
5391;SDS011;2719;53.624;9.786;2022-12-07T05:47:08;1.77;;;0.67;;
5391;SDS011;2719;53.624;9.786;2022-12-07T05:49:35;3.27;;;0.93;;
5391;SDS011;2719;53.624;9.786;2022-12-07T05:52:01;1.70;;;0.60;;
5391;SDS011;2719;53.624;9.786;2022-12-07T05:54:29;6.03;;;1.03;;
5391;SDS011;2719;53.624;9.786;2022-12-07T05:56:56;0.80;;;0.57;;
5391;SDS011;2719;53.624;9.786;2022-12-07T05:59:23;4.60;;;0.50;;
5391;SDS011;2719;53.624;9.786;2022-12-07T06:01:54;1.00;;;0.40;;
5391;SDS011;2719;53.624;9.786;2022-12-07T06:04:22;3.50;;;0.60;;
5391;SDS011;2719;53.624;9.786;2022-12-07T06:06:49;1.37;;;0.57;;
5391;SDS011;2719;53.624;9.786;2022-12-07T06:09:16;1.37;;;0.60;;
5391;SDS011;2719;53.624;9.786;2022-12-07T06:11:43;1.40;;;0.70;;
5391;SDS011;2719;53.624;9.786;2022-12-07T06:14:27;2.07;;;0.60;;
5391;SDS011;2719;53.624;9.786;2022-12-07T06:16:56;1.13;;;0.50;;
5391;SDS011;2719;53.624;9.786;2022-12-07T06:19:23;3.00;;;0.60;;
5391;SDS011;2719;53.624;9.786;2022-12-07T06:21:49;1.50;;;0.70;;
5391;SDS011;2719;53.624;9.786;2022-12-07T06:24:16;1.50;;;0.70;;
5391;SDS011;2719;53.624;9.786;2022-12-07T06:26:43;3.03;;;0.70;;
5391;SDS011;2719;53.624;9.786;2022-12-07T06:29:10;6.20;;;1.07;;
5391;SDS011;2719;53.624;9.786;2022-12-07T06:31:37;2.07;;;0.60;;
5391;SDS011;2719;53.624;9.786;2022-12-07T06:34:07;3.47;;;0.80;;
5391;SDS011;2719;53.624;9.786;2022-12-07T06:36:36;1.50;;;0.80;;
5391;SDS011;2719;53.624;9.786;2022-12-07T06:39:03;2.60;;;0.80;;
5391;SDS011;2719;53.624;9.786;2022-12-07T06:41:31;4.60;;;1.60;;
5391;SDS011;2719;53.624;9.786;2022-12-07T06:43:58;2.13;;;0.63;;
5391;SDS011;2719;53.624;9.786;2022-12-07T06:46:24;5.33;;;0.60;;
5391;SDS011;2719;53.624;9.786;2022-12-07T06:48:51;4.13;;;0.80;;
5391;SDS011;2719;53.624;9.786;2022-12-07T06:51:19;6.57;;;1.23;;
5391;SDS011;2719;53.624;9.786;2022-12-07T06:53:46;2.83;;;0.63;;
5391;SDS011;2719;53.624;9.786;2022-12-07T06:56:12;1.97;;;0.63;;
5391;SDS011;2719;53.624;9.786;2022-12-07T06:58:39;1.80;;;0.50;;
5391;SDS011;2719;53.624;9.786;2022-12-07T07:01:08;1.30;;;0.50;;
5391;SDS011;2719;53.624;9.786;2022-12-07T07:03:36;3.23;;;0.50;;
5391;SDS011;2719;53.624;9.786;2022-12-07T07:06:03;2.30;;;0.70;;
5391;SDS011;2719;53.624;9.786;2022-12-07T07:08:31;0.90;;;0.40;;
5391;SDS011;2719;53.624;9.786;2022-12-07T07:10:57;6.50;;;0.60;;
5391;SDS011;2719;53.624;9.786;2022-12-07T07:13:24;2.30;;;0.60;;
5391;SDS011;2719;53.624;9.786;2022-12-07T07:15:51;5.20;;;0.70;;
5391;SDS011;2719;53.624;9.786;2022-12-07T07:18:17;2.87;;;0.70;;
5391;SDS011;2719;53.624;9.786;2022-12-07T07:20:44;2.00;;;0.50;;
5391;SDS011;2719;53.624;9.786;2022-12-07T07:23:11;4.33;;;0.47;;
5391;SDS011;2719;53.624;9.786;2022-12-07T07:25:39;2.60;;;0.50;;
5391;SDS011;2719;53.624;9.786;2022-12-07T07:28:06;0.80;;;0.43;;
5391;SDS011;2719;53.624;9.786;2022-12-07T07:30:32;5.87;;;0.60;;
5391;SDS011;2719;53.624;9.786;2022-12-07T07:32:59;2.90;;;0.40;;
5391;SDS011;2719;53.624;9.786;2022-12-07T07:35:27;4.37;;;0.40;;
5391;SDS011;2719;53.624;9.786;2022-12-07T07:37:55;1.70;;;0.50;;
5391;SDS011;2719;53.624;9.786;2022-12-07T07:40:22;3.50;;;0.50;;
5391;SDS011;2719;53.624;9.786;2022-12-07T07:42:51;3.10;;;0.93;;
5391;SDS011;2719;53.624;9.786;2022-12-07T07:45:19;3.60;;;0.70;;
5391;SDS011;2719;53.624;9.786;2022-12-07T07:47:46;1.10;;;0.43;;
5391;SDS011;2719;53.624;9.786;2022-12-07T07:50:13;1.30;;;0.60;;
5391;SDS011;2719;53.624;9.786;2022-12-07T07:52:41;2.27;;;0.60;;
5391;SDS011;2719;53.624;9.786;2022-12-07T07:55:08;3.27;;;0.43;;
5391;SDS011;2719;53.624;9.786;2022-12-07T07:57:34;2.50;;;0.40;;
5391;SDS011;2719;53.624;9.786;2022-12-07T08:00:04;1.13;;;0.50;;
5391;SDS011;2719;53.624;9.786;2022-12-07T08:02:33;0.90;;;0.50;;
5391;SDS011;2719;53.624;9.786;2022-12-07T08:05:00;7.20;;;1.53;;
5391;SDS011;2719;53.624;9.786;2022-12-07T08:07:27;16.23;;;1.00;;
5391;SDS011;2719;53.624;9.786;2022-12-07T08:09:54;4.50;;;1.20;;
5391;SDS011;2719;53.624;9.786;2022-12-07T08:12:20;2.00;;;0.67;;
5391;SDS011;2719;53.624;9.786;2022-12-07T08:14:47;1.83;;;0.40;;
5391;SDS011;2719;53.624;9.786;2022-12-07T08:17:15;5.33;;;0.50;;
5391;SDS011;2719;53.624;9.786;2022-12-07T08:19:42;1.57;;;0.50;;
5391;SDS011;2719;53.624;9.786;2022-12-07T08:22:08;1.00;;;0.40;;
5391;SDS011;2719;53.624;9.786;2022-12-07T08:24:35;9.73;;;0.63;;
5391;SDS011;2719;53.624;9.786;2022-12-07T08:27:02;1.23;;;0.90;;
5391;SDS011;2719;53.624;9.786;2022-12-07T08:29:29;10.20;;;0.50;;
5391;SDS011;2719;53.624;9.786;2022-12-07T08:31:56;1.73;;;0.53;;
5391;SDS011;2719;53.624;9.786;2022-12-07T08:34:24;1.47;;;0.50;;
5391;SDS011;2719;53.624;9.786;2022-12-07T08:36:51;7.70;;;0.40;;
5391;SDS011;2719;53.624;9.786;2022-12-07T08:39:17;5.37;;;0.50;;
5391;SDS011;2719;53.624;9.786;2022-12-07T08:41:44;5.10;;;0.60;;
5391;SDS011;2719;53.624;9.786;2022-12-07T08:44:11;3.50;;;0.40;;
5391;SDS011;2719;53.624;9.786;2022-12-07T08:46:38;4.43;;;0.50;;
5391;SDS011;2719;53.624;9.786;2022-12-07T08:49:08;1.00;;;0.40;;
5391;SDS011;2719;53.624;9.786;2022-12-07T08:51:39;2.30;;;0.40;;
5391;SDS011;2719;53.624;9.786;2022-12-07T08:54:07;2.47;;;0.70;;
5391;SDS011;2719;53.624;9.786;2022-12-07T08:56:37;2.73;;;0.70;;
5391;SDS011;2719;53.624;9.786;2022-12-07T08:59:04;7.97;;;0.50;;
5391;SDS011;2719;53.624;9.786;2022-12-07T09:01:32;2.93;;;0.40;;
5391;SDS011;2719;53.624;9.786;2022-12-07T09:03:59;0.80;;;0.50;;
5391;SDS011;2719;53.624;9.786;2022-12-07T09:06:25;4.10;;;0.40;;
5391;SDS011;2719;53.624;9.786;2022-12-07T09:08:55;4.40;;;0.47;;
5391;SDS011;2719;53.624;9.786;2022-12-07T09:11:24;6.17;;;0.63;;
5391;SDS011;2719;53.624;9.786;2022-12-07T09:13:51;2.23;;;0.67;;
5391;SDS011;2719;53.624;9.786;2022-12-07T09:16:18;2.00;;;0.50;;
5391;SDS011;2719;53.624;9.786;2022-12-07T09:18:45;3.50;;;0.70;;
5391;SDS011;2719;53.624;9.786;2022-12-07T09:21:11;10.70;;;0.67;;
5391;SDS011;2719;53.624;9.786;2022-12-07T09:23:38;3.00;;;0.87;;
5391;SDS011;2719;53.624;9.786;2022-12-07T09:26:08;2.43;;;0.70;;
5391;SDS011;2719;53.624;9.786;2022-12-07T09:28:35;1.00;;;0.50;;
5391;SDS011;2719;53.624;9.786;2022-12-07T09:31:02;1.93;;;0.80;;
5391;SDS011;2719;53.624;9.786;2022-12-07T09:33:29;3.90;;;0.53;;
5391;SDS011;2719;53.624;9.786;2022-12-07T09:35:56;2.10;;;0.50;;
5391;SDS011;2719;53.624;9.786;2022-12-07T09:38:22;1.17;;;0.40;;
5391;SDS011;2719;53.624;9.786;2022-12-07T09:40:51;3.00;;;0.60;;
5391;SDS011;2719;53.624;9.786;2022-12-07T09:43:22;1.87;;;0.40;;
5391;SDS011;2719;53.624;9.786;2022-12-07T09:45:50;2.90;;;0.40;;
5391;SDS011;2719;53.624;9.786;2022-12-07T09:48:20;7.97;;;0.60;;
5391;SDS011;2719;53.624;9.786;2022-12-07T09:50:48;9.03;;;0.47;;
5391;SDS011;2719;53.624;9.786;2022-12-07T09:53:18;6.33;;;0.60;;
5391;SDS011;2719;53.624;9.786;2022-12-07T09:55:50;5.43;;;0.60;;
5391;SDS011;2719;53.624;9.786;2022-12-07T09:58:19;2.40;;;0.40;;
5391;SDS011;2719;53.624;9.786;2022-12-07T10:00:50;4.30;;;0.50;;
5391;SDS011;2719;53.624;9.786;2022-12-07T10:03:19;5.00;;;0.60;;
5391;SDS011;2719;53.624;9.786;2022-12-07T10:05:47;2.00;;;0.50;;
5391;SDS011;2719;53.624;9.786;2022-12-07T10:08:16;10.33;;;0.50;;
5391;SDS011;2719;53.624;9.786;2022-12-07T10:10:43;11.40;;;0.73;;
5391;SDS011;2719;53.624;9.786;2022-12-07T10:13:11;0.70;;;0.30;;
5391;SDS011;2719;53.624;9.786;2022-12-07T10:15:46;5.13;;;0.50;;
5391;SDS011;2719;53.624;9.786;2022-12-07T10:18:16;2.20;;;0.40;;
5391;SDS011;2719;53.624;9.786;2022-12-07T10:20:45;5.27;;;0.40;;
5391;SDS011;2719;53.624;9.786;2022-12-07T10:23:13;1.37;;;0.30;;
5391;SDS011;2719;53.624;9.786;2022-12-07T10:25:42;5.27;;;0.60;;
5391;SDS011;2719;53.624;9.786;2022-12-07T10:28:11;1.67;;;0.40;;
5391;SDS011;2719;53.624;9.786;2022-12-07T10:30:48;6.67;;;0.60;;
5391;SDS011;2719;53.624;9.786;2022-12-07T10:33:32;2.13;;;0.60;;
5391;SDS011;2719;53.624;9.786;2022-12-07T10:36:00;3.13;;;0.50;;
5391;SDS011;2719;53.624;9.786;2022-12-07T10:38:44;2.93;;;0.43;;
5391;SDS011;2719;53.624;9.786;2022-12-07T10:41:12;2.20;;;0.30;;
5391;SDS011;2719;53.624;9.786;2022-12-07T10:43:45;6.33;;;0.60;;
5391;SDS011;2719;53.624;9.786;2022-12-07T10:49:24;7.40;;;1.23;;
5391;SDS011;2719;53.624;9.786;2022-12-07T10:52:09;6.00;;;0.70;;
5391;SDS011;2719;53.624;9.786;2022-12-07T10:54:45;4.50;;;0.50;;
5391;SDS011;2719;53.624;9.786;2022-12-07T11:00:09;3.20;;;1.23;;
5391;SDS011;2719;53.624;9.786;2022-12-07T11:02:46;3.70;;;0.80;;
5391;SDS011;2719;53.624;9.786;2022-12-07T11:05:27;7.57;;;0.83;;
5391;SDS011;2719;53.624;9.786;2022-12-07T11:08:00;1.93;;;0.50;;
5391;SDS011;2719;53.624;9.786;2022-12-07T11:10:34;4.27;;;0.40;;
5391;SDS011;2719;53.624;9.786;2022-12-07T11:13:14;7.70;;;0.60;;
5391;SDS011;2719;53.624;9.786;2022-12-07T11:15:53;5.93;;;0.60;;
5391;SDS011;2719;53.624;9.786;2022-12-07T11:18:29;5.73;;;1.37;;
5391;SDS011;2719;53.624;9.786;2022-12-07T11:21:06;9.53;;;0.93;;
5391;SDS011;2719;53.624;9.786;2022-12-07T11:23:42;7.07;;;0.90;;
5391;SDS011;2719;53.624;9.786;2022-12-07T11:26:17;12.00;;;0.50;;
5391;SDS011;2719;53.624;9.786;2022-12-07T11:28:58;5.60;;;0.60;;
5391;SDS011;2719;53.624;9.786;2022-12-07T11:31:42;6.97;;;0.70;;
5391;SDS011;2719;53.624;9.786;2022-12-07T11:34:24;4.70;;;0.70;;
5391;SDS011;2719;53.624;9.786;2022-12-07T11:37:02;6.03;;;0.60;;
5391;SDS011;2719;53.624;9.786;2022-12-07T11:39:34;7.70;;;0.40;;
5391;SDS011;2719;53.624;9.786;2022-12-07T11:42:06;2.53;;;0.90;;
5391;SDS011;2719;53.624;9.786;2022-12-07T11:44:39;9.70;;;0.70;;
5391;SDS011;2719;53.624;9.786;2022-12-07T11:47:17;8.43;;;1.40;;
5391;SDS011;2719;53.624;9.786;2022-12-07T11:49:51;2.20;;;0.53;;
5391;SDS011;2719;53.624;9.786;2022-12-07T11:52:25;11.93;;;0.80;;
5391;SDS011;2719;53.624;9.786;2022-12-07T11:54:56;7.30;;;0.90;;
5391;SDS011;2719;53.624;9.786;2022-12-07T11:57:28;3.57;;;0.60;;
5391;SDS011;2719;53.624;9.786;2022-12-07T12:00:03;4.40;;;0.60;;
5391;SDS011;2719;53.624;9.786;2022-12-07T12:02:33;6.80;;;0.80;;
5391;SDS011;2719;53.624;9.786;2022-12-07T12:05:05;8.37;;;1.23;;
5391;SDS011;2719;53.624;9.786;2022-12-07T12:07:42;6.17;;;0.77;;
5391;SDS011;2719;53.624;9.786;2022-12-07T12:10:15;3.43;;;0.70;;
5391;SDS011;2719;53.624;9.786;2022-12-07T12:12:53;5.03;;;0.80;;
5391;SDS011;2719;53.624;9.786;2022-12-07T12:15:38;2.80;;;0.77;;
5391;SDS011;2719;53.624;9.786;2022-12-07T12:21:09;4.43;;;0.70;;
5391;SDS011;2719;53.624;9.786;2022-12-07T12:23:41;3.43;;;0.70;;
5391;SDS011;2719;53.624;9.786;2022-12-07T12:26:14;2.60;;;0.60;;
5391;SDS011;2719;53.624;9.786;2022-12-07T12:28:49;5.50;;;1.30;;
5391;SDS011;2719;53.624;9.786;2022-12-07T12:31:29;6.77;;;0.70;;
5391;SDS011;2719;53.624;9.786;2022-12-07T12:34:01;3.40;;;0.50;;
5391;SDS011;2719;53.624;9.786;2022-12-07T12:36:43;3.73;;;0.60;;
5391;SDS011;2719;53.624;9.786;2022-12-07T12:39:13;8.90;;;0.60;;
5391;SDS011;2719;53.624;9.786;2022-12-07T12:41:51;5.90;;;0.60;;
5391;SDS011;2719;53.624;9.786;2022-12-07T12:47:39;8.47;;;0.63;;
5391;SDS011;2719;53.624;9.786;2022-12-07T12:50:31;8.83;;;0.80;;
5391;SDS011;2719;53.624;9.786;2022-12-07T12:53:03;9.53;;;0.97;;
5391;SDS011;2719;53.624;9.786;2022-12-07T12:58:39;13.33;;;1.00;;
5391;SDS011;2719;53.624;9.786;2022-12-07T13:01:36;16.47;;;1.43;;
5391;SDS011;2719;53.624;9.786;2022-12-07T13:04:16;8.03;;;1.70;;
5391;SDS011;2719;53.624;9.786;2022-12-07T13:06:47;11.03;;;0.70;;
5391;SDS011;2719;53.624;9.786;2022-12-07T13:09:19;5.57;;;0.40;;
5391;SDS011;2719;53.624;9.786;2022-12-07T13:11:48;5.03;;;0.60;;
5391;SDS011;2719;53.624;9.786;2022-12-07T13:14:41;14.20;;;0.60;;
5391;SDS011;2719;53.624;9.786;2022-12-07T13:23:18;7.87;;;0.60;;
5391;SDS011;2719;53.624;9.786;2022-12-07T13:25:49;3.63;;;0.53;;
5391;SDS011;2719;53.624;9.786;2022-12-07T13:28:22;2.73;;;0.33;;
5391;SDS011;2719;53.624;9.786;2022-12-07T13:30:57;4.80;;;0.60;;
5391;SDS011;2719;53.624;9.786;2022-12-07T13:33:45;8.73;;;0.70;;
5391;SDS011;2719;53.624;9.786;2022-12-07T13:36:21;3.10;;;0.80;;
5391;SDS011;2719;53.624;9.786;2022-12-07T13:38:50;6.50;;;0.57;;
5391;SDS011;2719;53.624;9.786;2022-12-07T13:41:19;8.77;;;0.90;;
5391;SDS011;2719;53.624;9.786;2022-12-07T13:43:48;3.63;;;0.50;;
5391;SDS011;2719;53.624;9.786;2022-12-07T13:46:19;6.50;;;0.93;;
5391;SDS011;2719;53.624;9.786;2022-12-07T13:48:51;2.97;;;0.60;;
5391;SDS011;2719;53.624;9.786;2022-12-07T13:51:20;3.70;;;0.60;;
5391;SDS011;2719;53.624;9.786;2022-12-07T13:53:50;5.17;;;0.50;;
5391;SDS011;2719;53.624;9.786;2022-12-07T13:56:20;6.73;;;0.60;;
5391;SDS011;2719;53.624;9.786;2022-12-07T13:58:48;1.80;;;0.50;;
5391;SDS011;2719;53.624;9.786;2022-12-07T14:01:15;7.50;;;0.60;;
5391;SDS011;2719;53.624;9.786;2022-12-07T14:03:44;5.67;;;0.70;;
5391;SDS011;2719;53.624;9.786;2022-12-07T14:06:19;2.40;;;0.40;;
5391;SDS011;2719;53.624;9.786;2022-12-07T14:09:05;1.93;;;0.47;;
5391;SDS011;2719;53.624;9.786;2022-12-07T14:11:33;1.60;;;0.40;;
5391;SDS011;2719;53.624;9.786;2022-12-07T14:14:00;3.83;;;0.57;;
5391;SDS011;2719;53.624;9.786;2022-12-07T14:16:30;5.27;;;0.73;;
5391;SDS011;2719;53.624;9.786;2022-12-07T14:19:01;8.97;;;0.50;;
5391;SDS011;2719;53.624;9.786;2022-12-07T14:21:30;7.27;;;0.40;;
5391;SDS011;2719;53.624;9.786;2022-12-07T14:26:51;6.70;;;0.60;;
5391;SDS011;2719;53.624;9.786;2022-12-07T14:29:18;3.93;;;0.60;;
5391;SDS011;2719;53.624;9.786;2022-12-07T14:31:56;12.97;;;0.90;;
5391;SDS011;2719;53.624;9.786;2022-12-07T14:34:25;3.10;;;0.60;;
5391;SDS011;2719;53.624;9.786;2022-12-07T14:36:52;3.63;;;0.60;;
5391;SDS011;2719;53.624;9.786;2022-12-07T14:39:18;6.43;;;0.40;;
5391;SDS011;2719;53.624;9.786;2022-12-07T14:41:45;1.80;;;0.50;;
5391;SDS011;2719;53.624;9.786;2022-12-07T14:44:18;1.50;;;0.50;;
5391;SDS011;2719;53.624;9.786;2022-12-07T14:46:46;3.23;;;0.43;;
5391;SDS011;2719;53.624;9.786;2022-12-07T14:49:13;7.10;;;0.67;;
5391;SDS011;2719;53.624;9.786;2022-12-07T14:51:41;9.00;;;1.67;;
5391;SDS011;2719;53.624;9.786;2022-12-07T14:54:12;9.90;;;0.80;;
5391;SDS011;2719;53.624;9.786;2022-12-07T14:56:42;6.30;;;0.77;;
5391;SDS011;2719;53.624;9.786;2022-12-07T14:59:09;4.00;;;0.50;;
5391;SDS011;2719;53.624;9.786;2022-12-07T15:01:36;4.97;;;0.60;;
5391;SDS011;2719;53.624;9.786;2022-12-07T15:04:03;2.47;;;0.40;;
5391;SDS011;2719;53.624;9.786;2022-12-07T15:06:30;3.13;;;0.60;;
5391;SDS011;2719;53.624;9.786;2022-12-07T15:08:58;0.80;;;0.40;;
5391;SDS011;2719;53.624;9.786;2022-12-07T15:11:25;1.90;;;0.80;;
5391;SDS011;2719;53.624;9.786;2022-12-07T15:13:52;2.23;;;0.60;;
5391;SDS011;2719;53.624;9.786;2022-12-07T15:16:33;4.73;;;0.57;;
5391;SDS011;2719;53.624;9.786;2022-12-07T15:19:01;10.03;;;0.50;;
5391;SDS011;2719;53.624;9.786;2022-12-07T15:21:28;6.40;;;0.77;;
5391;SDS011;2719;53.624;9.786;2022-12-07T15:23:54;9.80;;;0.50;;
5391;SDS011;2719;53.624;9.786;2022-12-07T15:26:23;1.27;;;0.40;;
5391;SDS011;2719;53.624;9.786;2022-12-07T15:28:49;3.50;;;0.50;;
5391;SDS011;2719;53.624;9.786;2022-12-07T15:31:18;3.53;;;0.60;;
5391;SDS011;2719;53.624;9.786;2022-12-07T15:33:45;2.93;;;0.60;;
5391;SDS011;2719;53.624;9.786;2022-12-07T15:36:15;5.53;;;0.93;;
5391;SDS011;2719;53.624;9.786;2022-12-07T15:38:46;11.57;;;0.90;;
5391;SDS011;2719;53.624;9.786;2022-12-07T15:41:13;2.00;;;0.70;;
5391;SDS011;2719;53.624;9.786;2022-12-07T15:43:41;5.80;;;0.80;;
5391;SDS011;2719;53.624;9.786;2022-12-07T15:46:28;9.20;;;1.90;;
5391;SDS011;2719;53.624;9.786;2022-12-07T15:48:56;2.10;;;0.70;;
5391;SDS011;2719;53.624;9.786;2022-12-07T15:51:22;9.30;;;1.47;;
5391;SDS011;2719;53.624;9.786;2022-12-07T15:53:49;3.73;;;0.80;;
5391;SDS011;2719;53.624;9.786;2022-12-07T15:56:16;3.50;;;0.83;;
5391;SDS011;2719;53.624;9.786;2022-12-07T15:58:44;6.50;;;0.83;;